Anza Borrego Desert Research Center, California Weather observations

Data are for 10 minute period ending at time listed.
 Day   Time   Solar   Ave.   Ave.  Ave.  Vector  Max.   Baro.   Total    
  of    of     Rad.   Air    Rel.  Wind   Wind   Wind  Press.  Precip.   
Year   Day            Temp.  Hum.  Speed  Dir.   Gust                    
2014   (PST)  Kw/m2    F      %     mph   deg.    mph    mb.     in.     
-------------------------------------------------------------------------
 241    0:00   0.00   84.2    28    5.7   254     6.9   502.0    0.00 
 241    0:10   0.00   84.4    27    6.5   249     7.7   502.0    0.00 
 241    0:20   0.00   84.2    27    4.5   256     5.6   502.0    0.00 
 241    0:30   0.00   84.8    26    4.5   227     7.1   502.0    0.00 
 241    0:40   0.00   85.2    26    3.4   193     5.5   502.0    0.00 
 241    0:50   0.00   85.1    26    3.1   200     4.5   502.0    0.00 
 241    1:00   0.00   85.0    26    3.5   214     4.6   502.0    0.00 
 241    1:10   0.00   83.4    26    3.7   220     5.1   502.0    0.00 
 241    1:20   0.00   82.8    27    1.7   226     3.3   502.0    0.00 
 241    1:30   0.00   81.1    28    2.8   226     3.6   502.0    0.00 
 241    1:40   0.00   81.4    28    4.5   227     6.1   502.0    0.00 
 241    1:50   0.00   81.9    27    5.7   228     8.0   502.0    0.00 
 241    2:00   0.00   83.6    26    3.7   232     4.8   502.0    0.00 
 241    2:10   0.00   83.4    26    4.1   217     5.6   502.0    0.00 
 241    2:20   0.00   82.0    27    4.4   216     5.7   502.0    0.00 
 241    2:30   0.00   82.0    27    4.8   202     6.3   502.0    0.00 
 241    2:40   0.00   81.8    26    5.3   212     6.6   502.0    0.00 
 241    2:50   0.00   82.2    26    3.8   228     5.0   502.0    0.00 
 241    3:00   0.00   82.4    26    3.4   218     4.8   502.0    0.00 
 241    3:10   0.00   82.3    26    3.3   223     5.6   502.0    0.00 
 241    3:20   0.00   83.0    26    3.6   224     4.7   502.0    0.00 
 241    3:30   0.00   81.3    27    3.5   224     3.9   502.0    0.00 
 241    3:40   0.00   80.2    27    3.6   225     4.6   502.0    0.00 
 241    3:50   0.00   79.7    28    4.2   201     5.8   501.9    0.00 
 241    4:00   0.00   81.2    26    4.6   216     6.8   501.9    0.00 
 241    4:10   0.00   81.8    25    4.2   202     5.7   501.9    0.00 
 241    4:20   0.00   81.9    26    3.9   207     6.1   501.9    0.00 
 241    4:30   0.00   82.8    25    4.7   222     6.1   502.0    0.00 
 241    4:40   0.00   82.2    25    2.9   237     4.1   502.0    0.00 
 241    4:50   0.00   80.8    26    2.4   258     5.4   502.0    0.00 
 241    5:00   0.00   81.5    26    3.8   260     5.6   501.9    0.00 
 241    5:10   0.00   81.4    25    2.9   272     6.6   501.9    0.00 
 241    5:20   0.00   79.8    26    2.8   255     5.3   501.9    0.00 
 241    5:30   0.00   80.7    26    3.1   202     5.2   501.9    0.00 
 241    5:40   0.02   83.0    26    2.0   187     3.7   501.9    0.00 
 241    5:50   0.04   86.1    24    3.9   190     5.7   501.9    0.00 
 241    6:00   0.07   86.8    23    5.4   191     7.2   502.0    0.00 
 241    6:10   0.10   87.1    22    5.0   216     6.7   502.0    0.00 
 241    6:20   0.13   89.8    21    3.5   224     4.6   502.0    0.00 
 241    6:30   0.16   93.0    19    1.0   280     3.0   502.0    0.00 
 241    6:40   0.20   94.1    19    1.7   356     3.9   502.0    0.00 
 241    6:50   0.23   96.4    18    1.5    64     3.3   502.0    0.00 
 241    7:00   0.27   96.7    18    0.8    38     3.4   502.0    0.00 
 241    7:10   0.31   98.3    17    1.1   344     2.2   502.1    0.00 
 241    7:20   0.34   98.0    17    1.2   313     3.1   502.1    0.00 
 241    7:30   0.38   99.9    16    1.1   145     3.6   502.1    0.00 
 241    7:40   0.42  100.4    15    4.3   167     6.8   502.1    0.00 
 241    7:50   0.45   98.9    16    5.7   158     8.3   502.1    0.00 
 241    8:00   0.49   99.2    16    4.2   148     7.7   502.2    0.00 
 241    8:10   0.52  100.1    15    2.8   115     5.2   502.3    0.00 
 241    8:20   0.56  101.6    14    2.2   109     4.4   502.3    0.00 
 241    8:30   0.59  101.8    14    3.1   133     5.1   502.3    0.00 
 241    8:40   0.62  102.6    14    2.1   114     5.2   502.3    0.00 
 241    8:50   0.65  102.9    14    2.5    43     5.2   502.4    0.00 
 241    9:00   0.68  103.0    14    2.8    81     5.3   502.5    0.00 
 241    9:10   0.71  103.2    14    3.5    92     5.5   815.5    0.00 
 241    9:20   0.73  103.6    14    2.4    88     6.0   978.3    0.00 
 241    9:30   0.76  104.6    13    3.3   165     7.2   978.3    0.00 
 241    9:40   0.78  104.7    13    4.4   172     7.8   978.1    0.00 
 241    9:50   0.81  104.8    13    5.0   134     8.4   978.1    0.00 
 241   10:00   0.82  105.0    12    5.2   149     7.8   978.0    0.00 
 241   10:10   0.84  106.0    12    5.3   129     9.3   978.0    0.00 
 241   10:20   0.86  106.2    12    4.5   155     8.6   977.9    0.00 
 241   10:30   0.88  106.6    12    4.3   132     8.5   977.8    0.00 
 241   10:40   0.89  107.5    11    2.8    50     8.6   977.7    0.00 
 241   10:50   0.90  107.4    11    4.8   100     9.3   977.6    0.00 
 241   11:00   0.91  107.4    11    3.4    85     8.0   977.4    0.00 
 241   11:10   0.92  107.9    10    6.0    82    11.4   977.3    0.00 
 241   11:20   0.93  108.3    10    4.9    76     9.9   977.2    0.00 
 241   11:30   0.93  108.6    10    8.2    92    13.5   977.1    0.00 
 241   11:40   0.93  109.1    10    5.2    99     9.4   976.9    0.00 
 241   11:50   0.93  109.5     9    6.4   124    15.9   976.8    0.00 
 241   12:00   0.93  109.4     9    8.0   157    14.8   976.7    0.00 
 241   12:10   0.93  109.5     9    8.0   156    14.4   976.6    0.00 
 241   12:20   0.93  109.2    10    7.0    97    14.1   976.5    0.00 
 241   12:30   0.92  109.4    10    6.9    86    14.6   976.4    0.00 
 241   12:40   0.90  109.2    10    8.7   146    14.5   976.4    0.00 
 241   12:50   0.88  109.9    10    4.7    91    10.7   976.3    0.00 
 241   13:00   0.89  110.6     9    7.1   110    14.8   976.2    0.00 
 241   13:10   0.88  110.1    10    7.5   138    13.2   976.1    0.00 
 241   13:20   0.86  109.7    10    6.4    98    11.6   976.0    0.00 
 241   13:30   0.84  110.1    10    4.7   122    12.4   975.9    0.00 
 241   13:40   0.83  110.5    10    9.4   106    13.6   975.7    0.00 
 241   13:50   0.81  110.4    10    6.4   133    12.4   975.6    0.00 
 241   14:00   0.79  111.1     9    2.9   113     9.1   975.6    0.00 
 241   14:10   0.76  111.7     9    4.8   137    13.7   975.4    0.00 
 241   14:20   0.74  110.8    10    7.4   132    18.3   975.2    0.00 
 241   14:30   0.71  111.3    10    5.8   138    12.9   975.2    0.00 
 241   14:40   0.68  111.2    10    6.5   175    12.9   975.1    0.00 
 241   14:50   0.65  110.8    10    9.3   157    15.8   975.0    0.00 
 241   15:00   0.62  111.4    11   12.1   133    21.9   974.5    0.00 
 241   15:10   0.59  110.0    12   11.3   286    16.7   974.9    0.00 
 241   15:20   0.57  109.4    12   12.8   272    19.6   974.8    0.00 
 241   15:30   0.54  109.2    12   12.0   278    19.0   974.7    0.00 
 241   15:40   0.51  108.7    11   13.6   259    20.5   974.6    0.00 
 241   15:50   0.47  108.8    11   14.3   263    20.2   974.5    0.00 
 241   16:00   0.44  108.8    10   13.2   273    19.0   974.4    0.00 
 241   16:10   0.40  108.3    10   14.9   269    21.7   974.5    0.00 
 241   16:20   0.37  108.1    10   14.0   279    20.2   974.4    0.00 
 241   16:30   0.33  107.8    10   14.8   278    23.0   974.4    0.00 
 241   16:40   0.30  107.7    10   13.0   278    19.7   974.3    0.00 
 241   16:50   0.26  107.9    10   12.2   268    18.7   974.3    0.00 
 241   17:00   0.23  106.8    10   12.8   268    17.8   974.3    0.00 
 241   17:10   0.09  106.1    10    8.3   271    14.4   974.2    0.00 
 241   17:20   0.01  104.1    11    7.9   279    12.4   974.2    0.00 
 241   17:30   0.01  103.7    11    5.7   293    11.8   974.1    0.00 
 241   17:40   0.01  103.4    11    4.8   308     9.6   974.1    0.00 
 241   17:50   0.01  103.0    10    5.5   299     9.9   974.2    0.00 
 241   18:00   0.01  102.7    11    7.3   319    11.3   974.3    0.00 
 241   18:10   0.00  101.9    11   12.2   327    19.6   974.4    0.00 
 241   18:20   0.00  101.4    12    9.9   325    14.2   974.5    0.00 
 241   18:30   0.00  101.2    12    9.3   321    18.0   974.6    0.00 
 241   18:40   0.00  100.9    12    9.1   318    15.4   974.6    0.00 
 241   18:50   0.00  101.0    12   10.2   322    20.7   968.1    0.00 
 241   19:00   0.00  100.7    12    9.0   319    17.5   862.1    0.00 
 241   19:10   0.00  100.5    12    7.0   324    17.0   502.3    0.00 
 241   19:20   0.00  100.1    12   10.6   311    14.4   502.3    0.00 
 241   19:30   0.00  100.1    12    8.0   309    14.0   502.3    0.00 
 241   19:40   0.00   99.9    12    7.4   301    13.4   502.3    0.00 
 241   19:50   0.00   99.8    11    5.6   313    11.0   502.3    0.00 
 241   20:00   0.00   98.1    12    2.9   217     6.1   502.3    0.00 
 241   20:10   0.00   96.4    13    2.0   290     6.3   502.3    0.00 
 241   20:20   0.00   95.1    14    2.0   279     3.8   502.2    0.00 
 241   20:30   0.00   93.4    15    1.9   201     4.2   502.1    0.00 
 241   20:40   0.00   93.5    15    3.5   226     6.1   502.1    0.00 
 241   20:50   0.00   93.4    15    3.6   238     5.6   502.1    0.00 
 241   21:00   0.00   93.7    15    2.9   228     6.1   502.1    0.00 
 241   21:10   0.00   93.2    15    5.0   218    10.4   502.1    0.00 
 241   21:20   0.00   93.3    15    5.2   211     6.9   502.1    0.00 
 241   21:30   0.00   92.4    16    5.3   215     7.5   502.1    0.00 
 241   21:40   0.00   91.3    16    4.3   215     6.9   502.1    0.00 
 241   21:50   0.00   90.8    16    4.5   214     7.0   502.1    0.00 
 241   22:00   0.00   87.8    17    4.3   221     6.9   502.1    0.00 
 241   22:10   0.00   86.5    18    4.7   193     6.7   502.0    0.00 
 241   22:20   0.00   87.1    18    5.3   199     6.8   502.0    0.00 
 241   22:30   0.00   85.8    18    3.1   228     5.4   502.0    0.00 
 241   22:40   0.00   85.9    18    1.3   231     3.7   502.0    0.00 
 241   22:50   0.00   84.4    18    1.9   239     3.2   502.0    0.00 
 241   23:00   0.00   83.0    19    2.4   271     4.6   502.0    0.00 
 241   23:10   0.00   83.2    18    3.8   252     5.1   502.0    0.00 
 241   23:20   0.00   82.3    19    4.8   262     6.8   502.0    0.00 
 241   23:30   0.00   82.8    19    3.8   274     5.5   502.0    0.00 
 241   23:40   0.00   83.9    18    2.7   253     4.4   502.0    0.00 
 241   23:50   0.00   83.9    18    2.3   254     5.0   502.0    0.00 

Return to Anza Borrego Desert Research Center graphs page.


Western Regional Climate Center,wrcc@dri.edu